Time;durP1;ratioP1;P1;durP2;ratioP2;P2;SDS_P1;SDS_P2;PMS_P1;PMS_P2;Temp;Humidity;BMP_temperature;BMP_pressure;BME280_temperature;BME280_humidity;BME280_pressure;Samples;Min_cycle;Max_cycle;Signal;HPM_P1;HPM_P2
2021/06/27 00:01:13;;;;;;;104.17;50.80;;;16.50;99.90;;;;;;4867613;29;20251;-62
2021/06/27 00:03:43;;;;;;;105.30;51.50;;;16.50;99.90;;;;;;4860333;29;20231;-62
2021/06/27 00:06:12;;;;;;;99.77;49.47;;;16.40;99.90;;;;;;4863964;29;20308;-62
2021/06/27 00:08:41;;;;;;;96.97;48.77;;;16.40;99.90;;;;;;4865513;29;20800;-62
2021/06/27 00:11:11;;;;;;;100.13;48.90;;;16.40;99.90;;;;;;4863904;29;20230;-62
2021/06/27 00:13:42;;;;;;;111.00;51.10;;;16.40;99.90;;;;;;4863277;29;20200;-62
2021/06/27 00:16:10;;;;;;;107.50;50.77;;;16.40;99.90;;;;;;4865567;29;20214;-62
2021/06/27 00:18:39;;;;;;;112.40;50.97;;;16.30;99.90;;;;;;4864221;29;20202;-62
2021/06/27 00:21:11;;;;;;;104.57;51.60;;;16.40;99.90;;;;;;4866896;29;20260;-62
2021/06/27 00:23:44;;;;;;;100.13;49.33;;;16.30;99.90;;;;;;4863142;29;20208;-62
2021/06/27 00:26:16;;;;;;;93.13;46.43;;;16.30;99.90;;;;;;4863413;29;20235;-62
2021/06/27 00:28:45;;;;;;;91.97;45.97;;;16.30;99.90;;;;;;4863612;29;20295;-62
2021/06/27 00:31:14;;;;;;;85.57;43.07;;;16.30;99.90;;;;;;4864702;29;20248;-62
2021/06/27 00:33:43;;;;;;;85.47;42.83;;;16.30;99.90;;;;;;4866239;29;20208;-62
2021/06/27 00:36:13;;;;;;;82.97;41.77;;;16.30;99.90;;;;;;4863886;29;20310;-62
2021/06/27 00:38:41;;;;;;;72.43;38.43;;;16.30;99.90;;;;;;4881073;29;20644;-62
2021/06/27 00:41:09;;;;;;;84.03;41.00;;;16.30;99.90;;;;;;4864780;29;20553;-62
2021/06/27 00:43:38;;;;;;;85.40;43.63;;;16.30;99.90;;;;;;4872370;29;20206;-62
2021/06/27 00:46:06;;;;;;;94.33;47.23;;;16.20;99.90;;;;;;4877197;29;20290;-62
2021/06/27 00:48:35;;;;;;;93.87;46.00;;;16.20;99.90;;;;;;4872652;29;20215;-62
2021/06/27 00:51:04;;;;;;;95.30;45.87;;;16.20;99.90;;;;;;4883788;29;20206;-63
2021/06/27 00:53:33;;;;;;;98.67;46.67;;;16.20;99.90;;;;;;4871709;29;20210;-62
2021/06/27 00:56:02;;;;;;;97.47;48.13;;;16.20;99.90;;;;;;4870369;29;20207;-63
2021/06/27 00:58:31;;;;;;;93.50;47.33;;;16.10;99.90;;;;;;4875039;29;20234;-62
2021/06/27 01:01:01;;;;;;;101.27;47.07;;;16.10;99.90;;;;;;4870473;29;20264;-62
2021/06/27 01:03:29;;;;;;;95.07;47.63;;;16.10;99.90;;;;;;4873394;29;20235;-62
2021/06/27 01:05:57;;;;;;;93.93;46.40;;;16.10;99.90;;;;;;4880038;29;20230;-62
2021/06/27 01:08:26;;;;;;;98.43;47.73;;;16.10;99.90;;;;;;4871237;29;20256;-62
2021/06/27 01:10:56;;;;;;;92.40;45.10;;;16.10;99.90;;;;;;4869899;29;20222;-62
2021/06/27 01:13:25;;;;;;;100.40;45.87;;;16.10;99.90;;;;;;4869222;29;20844;-62
2021/06/27 01:15:54;;;;;;;97.93;46.40;;;16.10;99.90;;;;;;4864975;29;20204;-62
2021/06/27 01:18:23;;;;;;;93.00;46.37;;;16.10;99.90;;;;;;4869297;29;20206;-62
2021/06/27 01:20:51;;;;;;;91.60;44.10;;;16.00;99.90;;;;;;4874550;29;20299;-62
2021/06/27 01:23:21;;;;;;;96.27;45.37;;;16.00;99.90;;;;;;4874193;29;20203;-62
2021/06/27 01:25:52;;;;;;;93.87;45.63;;;16.00;99.90;;;;;;4874447;29;20281;-62
2021/06/27 01:28:21;;;;;;;87.60;44.60;;;16.00;99.90;;;;;;4873064;29;20620;-62
2021/06/27 01:30:50;;;;;;;98.43;45.57;;;15.90;99.90;;;;;;4874236;29;20255;-64
2021/06/27 01:33:20;;;;;;;96.50;46.13;;;15.90;99.90;;;;;;4875633;29;20282;-62
2021/06/27 01:35:50;;;;;;;95.90;48.10;;;15.90;99.90;;;;;;4872608;29;20202;-62
2021/06/27 01:38:19;;;;;;;99.47;46.60;;;15.90;99.90;;;;;;4874228;29;20191;-62
2021/06/27 01:40:49;;;;;;;99.63;48.13;;;15.80;99.90;;;;;;4865975;29;20205;-62
2021/06/27 01:43:19;;;;;;;97.10;45.57;;;15.80;99.90;;;;;;4887985;29;20236;-62
2021/06/27 01:45:49;;;;;;;92.63;46.23;;;15.80;99.90;;;;;;4875178;29;20222;-62
2021/06/27 01:48:18;;;;;;;96.07;44.93;;;15.80;99.90;;;;;;4864322;29;20210;-62
2021/06/27 01:50:48;;;;;;;102.13;47.37;;;15.80;99.90;;;;;;4865736;29;20230;-62
2021/06/27 01:53:19;;;;;;;111.53;52.33;;;15.80;99.90;;;;;;4860912;29;20802;-62
2021/06/27 01:56:04;;;;;;;107.40;50.37;;;15.90;99.90;;;;;;4862411;29;20330;-62
2021/06/27 01:58:33;;;;;;;99.43;48.37;;;15.90;99.90;;;;;;4864099;29;20218;-62
2021/06/27 02:01:03;;;;;;;103.60;50.07;;;15.90;99.90;;;;;;4868168;29;20199;-62
2021/06/27 02:03:31;;;;;;;104.67;49.50;;;15.90;99.90;;;;;;4858371;29;20302;-62
2021/06/27 02:06:00;;;;;;;109.13;48.80;;;15.90;99.90;;;;;;4861479;29;20223;-62
2021/06/27 02:08:33;;;;;;;102.93;49.33;;;16.00;99.90;;;;;;4864971;29;20203;-62
2021/06/27 02:11:04;;;;;;;109.77;50.53;;;16.00;99.90;;;;;;4875093;29;20641;-62
2021/06/27 02:13:34;;;;;;;102.93;49.47;;;16.00;99.90;;;;;;4862957;29;20207;-62
2021/06/27 02:16:03;;;;;;;97.17;45.57;;;16.00;99.90;;;;;;4863734;29;20228;-62
2021/06/27 02:18:33;;;;;;;105.37;50.10;;;16.00;99.90;;;;;;4868050;29;20210;-62
2021/06/27 02:21:05;;;;;;;105.33;50.63;;;16.00;99.90;;;;;;4873172;29;20678;-62
2021/06/27 02:23:34;;;;;;;117.63;53.20;;;16.10;99.90;;;;;;4863374;29;20229;-62
2021/06/27 02:26:04;;;;;;;108.77;51.37;;;16.10;99.90;;;;;;4866079;29;20223;-62
2021/06/27 02:28:33;;;;;;;106.70;50.17;;;16.10;99.90;;;;;;4865274;29;20211;-62
2021/06/27 02:31:02;;;;;;;112.37;51.70;;;16.10;99.90;;;;;;4865373;29;20237;-62
2021/06/27 02:33:31;;;;;;;114.90;52.60;;;16.10;99.90;;;;;;4865353;29;20555;-62
2021/06/27 02:36:00;;;;;;;104.47;49.30;;;16.20;99.90;;;;;;4862682;29;20785;-62
2021/06/27 02:38:28;;;;;;;98.97;47.77;;;16.10;99.90;;;;;;4864723;29;20206;-62
2021/06/27 02:40:57;;;;;;;103.00;48.70;;;16.10;99.90;;;;;;4864400;29;20213;-62
2021/06/27 02:43:27;;;;;;;109.47;51.57;;;16.10;99.90;;;;;;4864083;29;20297;-62
2021/06/27 02:45:55;;;;;;;93.13;46.17;;;16.10;99.90;;;;;;4864539;29;22478;-62
2021/06/27 02:48:24;;;;;;;114.23;52.77;;;16.10;99.90;;;;;;4867273;29;20198;-62
2021/06/27 02:50:53;;;;;;;114.40;54.37;;;16.10;99.90;;;;;;4864523;29;20199;-62
2021/06/27 02:53:21;;;;;;;116.40;55.47;;;16.10;99.90;;;;;;4871788;29;20200;-62
2021/06/27 02:56:06;;;;;;;122.83;58.20;;;16.10;99.90;;;;;;4865763;29;20231;-63
2021/06/27 02:58:38;;;;;;;128.03;56.43;;;16.10;99.90;;;;;;4860275;29;20204;-62
2021/06/27 03:01:07;;;;;;;115.37;54.60;;;16.10;99.90;;;;;;4865725;29;20644;-62
2021/06/27 03:03:38;;;;;;;112.90;54.03;;;16.10;99.90;;;;;;4859339;29;20235;-62
2021/06/27 03:06:07;;;;;;;111.73;53.27;;;16.10;99.90;;;;;;4865800;29;20229;-62
2021/06/27 03:08:35;;;;;;;110.10;53.03;;;16.10;99.90;;;;;;4862077;29;20247;-62
2021/06/27 03:11:05;;;;;;;120.90;54.57;;;16.10;99.90;;;;;;4861674;29;20257;-62
2021/06/27 03:13:34;;;;;;;112.30;53.50;;;16.10;99.90;;;;;;4864026;29;20725;-62
2021/06/27 03:16:05;;;;;;;117.30;55.40;;;16.10;99.90;;;;;;4861997;29;20236;-61
2021/06/27 03:18:34;;;;;;;114.40;54.00;;;16.10;99.90;;;;;;4872705;29;20281;-62
2021/06/27 03:21:02;;;;;;;113.73;55.83;;;16.10;99.90;;;;;;4875673;29;20284;-62
2021/06/27 03:23:31;;;;;;;122.60;55.73;;;16.00;99.90;;;;;;4877757;29;20214;-62
2021/06/27 03:25:59;;;;;;;114.87;53.93;;;16.00;99.90;;;;;;4863217;29;20667;-62
2021/06/27 03:28:32;;;;;;;108.40;53.43;;;16.00;99.90;;;;;;4868532;29;20222;-62
2021/06/27 03:31:01;;;;;;;124.83;61.83;;;16.00;99.90;;;;;;4865720;29;20235;-62
2021/06/27 03:33:31;;;;;;;128.67;60.13;;;16.10;99.90;;;;;;4866477;29;20207;-62
2021/06/27 03:35:59;;;;;;;121.07;59.67;;;16.10;99.90;;;;;;4866771;29;20195;-62
2021/06/27 03:38:33;;;;;;;127.70;57.90;;;16.10;99.90;;;;;;4868418;29;20218;-62
2021/06/27 03:41:01;;;;;;;115.53;58.90;;;16.10;99.90;;;;;;4865932;29;20239;-62
2021/06/27 03:43:30;;;;;;;117.30;57.57;;;16.10;99.90;;;;;;4867063;29;20243;-62
2021/06/27 03:46:01;;;;;;;124.57;59.30;;;16.10;99.90;;;;;;4868076;29;20206;-62
2021/06/27 03:48:30;;;;;;;123.07;58.93;;;16.10;99.90;;;;;;4868973;29;20199;-63
2021/06/27 03:50:59;;;;;;;124.90;58.43;;;16.10;99.90;;;;;;4867425;29;20287;-62
2021/06/27 03:53:27;;;;;;;121.10;58.47;;;16.10;99.90;;;;;;4869082;29;20731;-62
2021/06/27 03:55:57;;;;;;;115.50;57.80;;;16.10;99.90;;;;;;4864740;29;20678;-62
2021/06/27 03:58:27;;;;;;;115.87;57.20;;;16.10;99.90;;;;;;4866512;29;20212;-62
2021/06/27 04:00:55;;;;;;;122.80;60.80;;;16.10;99.90;;;;;;4867145;29;20203;-62
2021/06/27 04:03:24;;;;;;;114.57;57.00;;;16.10;99.90;;;;;;4862008;29;20228;-62
2021/06/27 04:05:54;;;;;;;122.80;58.87;;;16.00;99.90;;;;;;4861881;29;20235;-62
2021/06/27 04:08:23;;;;;;;118.10;57.13;;;16.00;99.90;;;;;;4863894;29;20318;-62
2021/06/27 04:10:56;;;;;;;117.00;59.57;;;16.00;99.90;;;;;;4868736;29;20238;-62
2021/06/27 04:13:25;;;;;;;125.60;59.53;;;16.00;99.90;;;;;;4865569;29;20203;-62
2021/06/27 04:16:07;;;;;;;118.47;57.40;;;16.00;99.90;;;;;;4871089;29;20203;-62
2021/06/27 04:18:37;;;;;;;111.20;54.70;;;16.00;99.90;;;;;;4865691;29;20645;-62
2021/06/27 04:21:08;;;;;;;113.43;55.30;;;16.00;99.90;;;;;;4866982;29;20573;-62
2021/06/27 04:23:40;;;;;;;131.27;63.13;;;16.10;99.90;;;;;;4866427;29;20276;-62
2021/06/27 04:26:09;;;;;;;128.27;62.90;;;16.10;99.90;;;;;;4862583;29;20203;-62
2021/06/27 04:28:37;;;;;;;124.97;60.97;;;16.20;99.90;;;;;;4868406;29;20208;-62
2021/06/27 04:31:07;;;;;;;136.73;65.87;;;16.30;99.90;;;;;;4880030;29;20200;-62
2021/06/27 04:33:35;;;;;;;122.83;62.00;;;16.30;99.90;;;;;;4869693;29;20263;-63
2021/06/27 04:36:04;;;;;;;121.00;62.03;;;16.40;99.90;;;;;;4865130;29;20208;-62
2021/06/27 04:38:34;;;;;;;117.80;63.40;;;16.50;99.90;;;;;;4867518;29;20663;-63
2021/06/27 04:41:03;;;;;;;123.73;62.07;;;16.60;99.90;;;;;;4866767;29;20200;-62
2021/06/27 04:43:31;;;;;;;110.17;59.87;;;16.70;99.90;;;;;;4871364;29;20250;-62
2021/06/27 04:46:00;;;;;;;116.87;60.10;;;16.90;99.90;;;;;;4863073;29;20234;-62
2021/06/27 04:48:28;;;;;;;101.20;56.80;;;17.00;99.90;;;;;;4865366;29;20295;-63
2021/06/27 04:50:57;;;;;;;96.80;55.67;;;17.10;99.90;;;;;;4862363;29;20231;-62
2021/06/27 04:53:25;;;;;;;91.60;54.90;;;17.30;99.90;;;;;;4865238;29;20643;-62
2021/06/27 04:55:58;;;;;;;85.90;52.30;;;17.40;99.90;;;;;;4865694;29;20302;-62
2021/06/27 04:58:27;;;;;;;90.10;52.77;;;17.50;99.90;;;;;;4864372;29;20300;-62
2021/06/27 05:00:55;;;;;;;84.27;51.50;;;17.50;99.90;;;;;;4866232;29;20798;-62
2021/06/27 05:03:25;;;;;;;75.73;47.27;;;17.50;99.90;;;;;;4864314;29;20278;-62
2021/06/27 05:05:53;;;;;;;85.57;51.23;;;17.50;99.90;;;;;;4860683;29;20305;-62
2021/06/27 05:08:22;;;;;;;79.27;45.93;;;17.50;99.90;;;;;;4863800;29;20205;-62
2021/06/27 05:10:51;;;;;;;72.87;45.80;;;17.50;99.90;;;;;;4865867;29;20753;-62
2021/06/27 05:13:21;;;;;;;75.33;46.07;;;17.60;99.90;;;;;;4864485;29;20908;-62
2021/06/27 05:15:49;;;;;;;78.23;48.23;;;17.60;99.90;;;;;;4863599;29;20209;-62
2021/06/27 05:18:19;;;;;;;80.47;48.90;;;17.60;99.90;;;;;;4867760;29;20200;-62
2021/06/27 05:20:49;;;;;;;79.43;49.77;;;17.60;99.90;;;;;;4864574;29;20207;-62
2021/06/27 05:23:17;;;;;;;77.40;50.23;;;17.60;99.90;;;;;;4862134;29;20238;-62
2021/06/27 05:25:46;;;;;;;82.37;49.70;;;17.60;99.90;;;;;;4867512;29;20305;-62
2021/06/27 05:28:15;;;;;;;76.90;47.73;;;17.60;99.90;;;;;;4865042;29;20942;-62
2021/06/27 05:30:44;;;;;;;82.00;48.87;;;17.60;99.90;;;;;;4864858;29;20733;-62
2021/06/27 05:33:13;;;;;;;80.37;50.27;;;17.60;99.90;;;;;;4862235;29;20243;-62
2021/06/27 05:35:42;;;;;;;75.27;47.17;;;17.60;99.90;;;;;;4864874;29;20630;-62
2021/06/27 05:38:10;;;;;;;78.67;49.00;;;17.60;99.90;;;;;;4860552;29;20675;-62
2021/06/27 05:40:39;;;;;;;79.63;48.80;;;17.60;99.90;;;;;;4873016;29;20198;-62
2021/06/27 05:43:08;;;;;;;74.93;45.60;;;17.50;99.90;;;;;;4872285;29;20211;-62
2021/06/27 05:45:36;;;;;;;82.40;51.00;;;17.50;99.90;;;;;;4871420;29;20263;-62
2021/06/27 05:48:08;;;;;;;75.57;47.83;;;17.50;99.90;;;;;;4870281;29;20267;-62
2021/06/27 05:50:37;;;;;;;71.37;46.47;;;17.50;99.90;;;;;;4865494;29;20264;-62
2021/06/27 05:53:06;;;;;;;71.70;45.10;;;17.50;99.90;;;;;;4872778;29;20218;-62
2021/06/27 05:55:35;;;;;;;73.33;45.23;;;17.50;99.90;;;;;;4878909;29;20288;-62
2021/06/27 05:58:04;;;;;;;68.37;44.13;;;17.50;99.90;;;;;;4884533;29;20614;-62
2021/06/27 06:00:32;;;;;;;74.80;45.93;;;17.50;99.90;;;;;;4872844;29;20204;-62
2021/06/27 06:03:01;;;;;;;72.73;44.70;;;17.50;99.90;;;;;;4871005;29;20238;-62
2021/06/27 06:05:32;;;;;;;66.40;40.97;;;17.60;99.90;;;;;;4871844;29;20333;-62
2021/06/27 06:08:00;;;;;;;74.27;44.60;;;17.60;99.90;;;;;;4872753;29;20264;-62
2021/06/27 06:10:28;;;;;;;63.43;40.60;;;17.70;99.90;;;;;;4872873;29;20690;-62
2021/06/27 06:12:57;;;;;;;65.30;43.47;;;17.70;99.90;;;;;;4878594;29;20199;-62
2021/06/27 06:15:26;;;;;;;76.97;47.60;;;17.70;99.90;;;;;;4866465;29;20705;-62
2021/06/27 06:17:55;;;;;;;73.50;46.57;;;17.70;99.90;;;;;;4869274;29;20566;-62
2021/06/27 06:20:23;;;;;;;73.33;45.77;;;17.70;99.90;;;;;;4872695;29;20202;-62
2021/06/27 06:22:55;;;;;;;71.30;45.87;;;17.80;99.90;;;;;;4872257;29;20207;-62
2021/06/27 06:25:23;;;;;;;67.23;44.53;;;17.80;99.90;;;;;;4873116;29;20218;-62
2021/06/27 06:27:52;;;;;;;68.80;44.33;;;17.80;99.90;;;;;;4885317;29;20285;-62
2021/06/27 06:30:20;;;;;;;63.43;42.83;;;17.90;99.90;;;;;;4867263;29;20206;-63
2021/06/27 06:32:49;;;;;;;65.23;42.87;;;17.90;99.90;;;;;;4876003;29;20195;-62
2021/06/27 06:35:18;;;;;;;69.00;45.17;;;17.90;99.90;;;;;;4872792;29;20235;-62
2021/06/27 06:37:46;;;;;;;61.53;42.47;;;17.90;99.90;;;;;;4873549;29;20202;-62
2021/06/27 06:40:16;;;;;;;64.10;40.93;;;17.90;99.90;;;;;;4873812;29;20195;-62
2021/06/27 06:42:44;;;;;;;66.73;43.77;;;17.90;99.90;;;;;;4870411;29;20824;-62
2021/06/27 06:45:13;;;;;;;59.93;40.97;;;17.90;99.90;;;;;;4872570;29;20214;-62
2021/06/27 06:47:41;;;;;;;61.87;40.17;;;17.90;99.90;;;;;;4863712;29;20302;-62
2021/06/27 06:50:11;;;;;;;61.47;41.43;;;18.00;99.90;;;;;;4861472;29;20203;-62
2021/06/27 06:52:39;;;;;;;55.50;38.07;;;18.10;99.90;;;;;;4866354;29;20215;-62
2021/06/27 06:55:08;;;;;;;63.33;42.13;;;18.10;99.90;;;;;;4877012;29;20286;-62
2021/06/27 06:57:38;;;;;;;59.13;40.67;;;18.20;99.90;;;;;;4863527;29;20255;-62
2021/06/27 07:00:10;;;;;;;65.40;40.23;;;18.20;99.90;;;;;;4865050;29;20249;-62
2021/06/27 07:02:39;;;;;;;63.23;42.40;;;18.30;99.90;;;;;;4867892;29;20254;-62
2021/06/27 07:05:08;;;;;;;59.70;40.17;;;18.30;99.90;;;;;;4865350;29;20214;-62
2021/06/27 07:07:41;;;;;;;57.60;39.37;;;18.30;99.90;;;;;;4866595;29;20980;-62
2021/06/27 07:10:10;;;;;;;62.83;39.33;;;18.40;99.90;;;;;;4866150;29;20263;-62
2021/06/27 07:12:43;;;;;;;58.23;40.73;;;18.50;99.90;;;;;;4865218;29;21117;-63
2021/06/27 07:15:13;;;;;;;57.97;37.57;;;18.60;99.90;;;;;;4867809;29;20286;-62
2021/06/27 07:17:41;;;;;;;52.03;35.63;;;19.00;99.90;;;;;;4862313;29;20766;-62
2021/06/27 07:20:12;;;;;;;46.03;33.77;;;19.60;99.90;;;;;;4865990;29;20805;-63
2021/06/27 07:22:41;;;;;;;43.77;31.13;;;20.30;99.90;;;;;;4862502;29;20199;-62
2021/06/27 07:25:11;;;;;;;42.30;31.60;;;20.60;99.90;;;;;;4869038;29;20344;-63
2021/06/27 07:27:41;;;;;;;42.77;32.17;;;20.80;99.90;;;;;;4871089;29;20198;-63
2021/06/27 07:30:11;;;;;;;43.67;31.07;;;20.60;99.90;;;;;;4867978;29;20208;-62
2021/06/27 07:32:40;;;;;;;44.13;28.77;;;20.50;99.90;;;;;;4876382;29;20591;-63
2021/06/27 07:35:09;;;;;;;41.57;31.37;;;20.50;99.90;;;;;;4881489;29;20206;-62
2021/06/27 07:37:45;;;;;;;43.47;30.30;;;20.50;99.90;;;;;;4883982;29;20290;-62
2021/06/27 07:40:15;;;;;;;40.27;31.00;;;20.40;99.90;;;;;;4878305;29;20290;-63
2021/06/27 07:42:45;;;;;;;43.13;30.50;;;20.40;99.90;;;;;;4875659;29;20635;-62
2021/06/27 07:45:14;;;;;;;44.13;29.13;;;20.40;99.90;;;;;;4875592;29;20219;-62
2021/06/27 07:47:43;;;;;;;40.57;30.73;;;20.50;99.90;;;;;;4878297;29;20232;-63
2021/06/27 07:50:12;;;;;;;37.47;29.20;;;20.50;99.90;;;;;;4876757;29;20230;-62
2021/06/27 07:52:40;;;;;;;36.73;27.90;;;20.60;99.90;;;;;;4876685;29;20199;-63
2021/06/27 07:55:10;;;;;;;39.83;29.27;;;20.60;99.90;;;;;;4886545;29;20202;-62
2021/06/27 07:57:39;;;;;;;38.57;28.63;;;20.60;99.90;;;;;;4873188;29;20678;-63
2021/06/27 08:00:11;;;;;;;37.43;27.50;;;20.60;99.90;;;;;;4873026;29;20668;-62
2021/06/27 08:02:40;;;;;;;35.20;27.23;;;20.60;99.90;;;;;;4873365;29;20283;-62
2021/06/27 08:05:09;;;;;;;36.97;27.60;;;20.70;99.90;;;;;;4871001;29;20267;-62
2021/06/27 08:07:37;;;;;;;36.00;28.33;;;20.70;99.90;;;;;;4870809;29;20210;-62
2021/06/27 08:10:08;;;;;;;35.47;28.20;;;20.70;99.90;;;;;;4876970;29;20256;-63
2021/06/27 08:12:37;;;;;;;36.33;28.67;;;20.60;99.90;;;;;;4874485;29;20230;-62
2021/06/27 08:15:10;;;;;;;35.53;24.77;;;20.70;99.90;;;;;;4872845;29;20278;-62
2021/06/27 08:17:39;;;;;;;36.80;25.73;;;20.80;99.90;;;;;;4878318;29;20286;-62
2021/06/27 08:20:08;;;;;;;32.60;25.23;;;20.90;99.90;;;;;;4870556;29;20252;-63
2021/06/27 08:22:36;;;;;;;31.77;24.90;;;20.90;99.90;;;;;;4866449;29;20666;-62
2021/06/27 08:25:06;;;;;;;31.57;24.87;;;21.20;99.90;;;;;;4873473;29;20306;-63
2021/06/27 08:27:34;;;;;;;28.20;23.80;;;21.40;99.90;;;;;;4874941;29;20564;-63
2021/06/27 08:30:05;;;;;;;29.87;23.23;;;21.60;99.90;;;;;;4874297;29;20199;-63
2021/06/27 08:32:35;;;;;;;31.03;22.50;;;21.80;99.90;;;;;;4876547;29;20210;-63
2021/06/27 08:35:04;;;;;;;29.17;21.40;;;22.10;99.90;;;;;;4880618;29;20222;-62
2021/06/27 08:37:33;;;;;;;26.97;21.60;;;22.40;99.90;;;;;;4878299;29;20637;-63
2021/06/27 08:40:01;;;;;;;27.93;20.87;;;22.60;99.90;;;;;;4878055;29;20233;-62
2021/06/27 08:42:31;;;;;;;24.77;20.83;;;22.70;99.90;;;;;;4871097;29;20246;-63
2021/06/27 08:45:00;;;;;;;25.13;20.27;;;23.00;99.90;;;;;;4871643;29;20263;-62
2021/06/27 08:47:30;;;;;;;22.97;19.03;;;23.30;99.90;;;;;;4870237;29;20259;-63
2021/06/27 08:50:04;;;;;;;24.30;18.80;;;23.40;99.90;;;;;;4871731;29;20250;-63
2021/06/27 08:52:33;;;;;;;24.03;19.53;;;23.60;99.90;;;;;;4875310;29;20662;-63
2021/06/27 08:55:05;;;;;;;24.23;19.07;;;23.80;99.90;;;;;;4871248;29;20309;-63
2021/06/27 08:57:33;;;;;;;25.50;18.37;;;23.90;99.90;;;;;;4875647;29;20276;-63
2021/06/27 09:00:03;;;;;;;22.57;19.03;;;23.80;99.90;;;;;;4876795;29;20193;-63
2021/06/27 09:02:31;;;;;;;24.77;19.10;;;23.80;99.90;;;;;;4875534;29;20331;-63
2021/06/27 09:05:00;;;;;;;22.87;18.83;;;24.00;99.90;;;;;;4879654;29;20309;-63
2021/06/27 09:07:31;;;;;;;22.20;18.57;;;24.00;99.90;;;;;;4870395;29;20207;-63
2021/06/27 09:10:04;;;;;;;20.33;17.87;;;24.10;99.90;;;;;;4875297;29;20239;-63
2021/06/27 09:12:50;;;;;;;22.20;18.10;;;24.20;99.90;;;;;;4870552;29;20211;-63
2021/06/27 09:15:38;;;;;;;23.07;19.20;;;24.40;99.90;;;;;;4869844;29;20203;-63
2021/06/27 09:18:09;;;;;;;24.57;19.03;;;24.50;99.90;;;;;;4872334;29;20663;-63
2021/06/27 09:20:38;;;;;;;20.73;18.27;;;24.50;99.90;;;;;;4877176;29;20203;-62
2021/06/27 09:23:12;;;;;;;22.80;18.57;;;24.50;99.90;;;;;;4876146;29;20451;-63
2021/06/27 09:25:42;;;;;;;22.73;18.93;;;24.50;99.90;;;;;;4893191;29;20792;-63
2021/06/27 09:28:12;;;;;;;20.13;17.90;;;24.40;99.90;;;;;;4875974;29;20741;-63
2021/06/27 09:30:44;;;;;;;20.90;18.37;;;24.40;99.90;;;;;;4866934;29;20619;-63
2021/06/27 09:33:16;;;;;;;28.00;18.03;;;24.50;99.90;;;;;;4875884;29;20704;-63
2021/06/27 09:35:48;;;;;;;22.97;18.03;;;24.50;99.90;;;;;;4881358;29;20197;-63
2021/06/27 09:38:20;;;;;;;20.50;17.63;;;24.60;99.90;;;;;;4871126;29;20202;-63
2021/06/27 09:40:50;;;;;;;19.17;16.60;;;24.60;99.90;;;;;;4874795;29;20238;-63
2021/06/27 09:43:19;;;;;;;21.87;17.70;;;24.80;99.90;;;;;;4882547;29;20671;-63
2021/06/27 09:45:49;;;;;;;23.40;18.17;;;24.80;99.90;;;;;;4876965;29;20526;-63
2021/06/27 09:48:17;;;;;;;21.50;18.00;;;24.80;99.90;;;;;;4877705;29;20205;-63
2021/06/27 09:50:47;;;;;;;21.87;19.03;;;24.70;99.90;;;;;;4880689;29;20207;-63
2021/06/27 09:53:41;;;;;;;19.60;17.50;;;24.70;99.90;;;;;;4872871;29;20254;-63
2021/06/27 09:56:10;;;;;;;20.47;17.47;;;24.60;99.90;;;;;;4881332;29;20404;-63
2021/06/27 09:58:39;;;;;;;25.07;19.40;;;24.60;99.90;;;;;;4874184;29;20261;-63
2021/06/27 10:01:23;;;;;;;23.90;18.13;;;24.50;99.90;;;;;;4869448;29;20210;-63
2021/06/27 10:03:53;;;;;;;20.40;17.60;;;24.20;99.90;;;;;;4866603;29;20722;-63
2021/06/27 10:06:23;;;;;;;23.10;18.73;;;24.20;99.90;;;;;;4867526;29;20248;-63
2021/06/27 10:08:54;;;;;;;24.67;19.43;;;24.30;99.90;;;;;;4872211;29;20744;-63
2021/06/27 10:11:24;;;;;;;21.33;17.93;;;24.10;99.90;;;;;;4873547;29;20261;-63
2021/06/27 10:13:54;;;;;;;20.87;17.23;;;24.00;99.90;;;;;;4877460;29;20247;-63
2021/06/27 10:16:28;;;;;;;23.23;18.17;;;24.00;99.90;;;;;;4874571;29;20199;-63
2021/06/27 10:18:58;;;;;;;24.63;19.03;;;24.00;99.90;;;;;;4868749;29;20331;-63
2021/06/27 10:21:28;;;;;;;20.67;17.73;;;23.90;99.90;;;;;;4868111;29;20204;-63
2021/06/27 10:23:58;;;;;;;24.03;18.40;;;23.80;99.90;;;;;;4867924;29;20235;-63
2021/06/27 10:26:28;;;;;;;21.93;18.43;;;23.80;99.90;;;;;;4873507;29;20497;-63
2021/06/27 10:28:58;;;;;;;24.47;19.23;;;23.80;99.90;;;;;;4871787;29;20195;-63
2021/06/27 10:31:28;;;;;;;22.73;18.27;;;23.80;99.90;;;;;;4872272;29;20347;-63
2021/06/27 10:33:57;;;;;;;21.60;18.80;;;23.80;99.90;;;;;;4872586;29;20192;-63
2021/06/27 10:36:31;;;;;;;23.73;18.33;;;23.80;99.90;;;;;;4876755;29;20221;-63
2021/06/27 10:39:07;;;;;;;20.53;16.83;;;23.80;99.90;;;;;;4877003;29;20202;-62
2021/06/27 10:42:04;;;;;;;18.97;16.37;;;23.80;99.90;;;;;;4885844;29;20232;-63
2021/06/27 10:44:57;;;;;;;21.30;16.93;;;23.90;99.90;;;;;;4841804;29;20217;-63
2021/06/27 10:47:34;;;;;;;20.43;16.47;;;23.90;99.90;;;;;;4879461;29;20304;-63
2021/06/27 10:50:04;;;;;;;19.70;15.20;;;23.80;99.90;;;;;;4872114;29;20256;-63
2021/06/27 10:53:02;;;;;;;18.67;16.27;;;23.90;99.90;;;;;;4873215;29;20200;-62
2021/06/27 10:55:40;;;;;;;21.27;18.47;;;24.00;99.90;;;;;;4874826;29;20216;-63
2021/06/27 10:58:10;;;;;;;22.63;18.93;;;23.90;99.90;;;;;;4875683;29;20196;-63
2021/06/27 11:01:13;;;;;;;24.63;18.83;;;23.90;99.90;;;;;;4874954;29;20205;-63
2021/06/27 11:03:43;;;;;;;21.07;16.63;;;23.80;99.90;;;;;;4888156;29;20338;-63
2021/06/27 11:06:38;;;;;;;20.07;17.87;;;23.80;99.90;;;;;;4876313;29;20228;-63
2021/06/27 11:09:28;;;;;;;22.93;17.87;;;23.90;99.90;;;;;;4876995;29;20196;-63
2021/06/27 11:11:59;;;;;;;19.20;17.13;;;24.10;99.90;;;;;;4871825;29;20197;-63
2021/06/27 11:14:28;;;;;;;25.00;18.00;;;24.40;99.90;;;;;;4871498;29;20306;-63
2021/06/27 11:17:05;;;;;;;20.37;16.80;;;24.60;99.90;;;;;;4874675;29;20231;-63
2021/06/27 11:19:35;;;;;;;22.73;16.60;;;24.90;99.90;;;;;;4889857;29;20308;-63
2021/06/27 11:22:15;;;;;;;19.80;16.37;;;25.40;99.90;;;;;;4873884;29;20233;-63
2021/06/27 11:24:44;;;;;;;19.40;14.67;;;25.80;99.90;;;;;;4873675;29;20667;-63
2021/06/27 11:30:25;;;;;;;19.67;14.90;;;26.20;99.90;;;;;;5097844;27;20564;-63
2021/06/27 11:32:55;;;;;;;18.10;14.87;;;27.20;99.90;;;;;;5084371;28;20571;-63
2021/06/27 11:35:41;;;;;;;15.73;13.90;;;27.70;99.90;;;;;;5078985;28;20259;-63
2021/06/27 11:38:43;;;;;;;16.48;14.10;;;28.10;99.90;;;;;;5080420;28;20188;-62
2021/06/27 11:41:13;;;;;;;16.58;14.65;;;27.80;99.90;;;;;;5076968;28;20192;-63
2021/06/27 11:43:58;;;;;;;17.35;14.98;;;27.70;99.90;;;;;;5081310;28;20670;-63
2021/06/27 11:46:30;;;;;;;18.15;15.50;;;27.60;99.90;;;;;;5080997;28;20203;-63
2021/06/27 11:49:01;;;;;;;15.32;13.73;;;27.90;99.90;;;;;;5078883;28;20862;-63
2021/06/27 11:51:43;;;;;;;13.98;12.57;;;28.60;99.90;;;;;;5081307;28;20218;-63
2021/06/27 11:54:14;;;;;;;13.10;11.85;;;29.00;99.90;;;;;;5081053;28;20194;-63
2021/06/27 11:56:55;;;;;;;14.52;12.73;;;29.10;99.90;;;;;;5081209;28;20196;-63
2021/06/27 11:59:25;;;;;;;12.60;11.40;;;29.10;99.90;;;;;;5077115;28;20676;-63
2021/06/27 12:02:13;;;;;;;11.60;10.48;;;29.10;99.90;;;;;;5082955;28;20201;-63
2021/06/27 12:04:44;;;;;;;14.25;11.68;;;28.90;99.90;;;;;;5076641;28;20195;-63
2021/06/27 12:07:29;;;;;;;11.70;10.55;;;29.00;99.90;;;;;;5082977;28;20861;-63
2021/06/27 12:09:59;;;;;;;14.02;12.05;;;29.20;99.90;;;;;;5080786;28;20717;-63
2021/06/27 12:12:35;;;;;;;17.40;11.75;;;29.00;99.90;;;;;;5075458;28;20729;-62
2021/06/27 12:15:06;;;;;;;12.45;11.27;;;28.50;99.90;;;;;;5082398;28;20193;-63
2021/06/27 12:17:36;;;;;;;12.25;10.77;;;28.30;99.90;;;;;;5076074;28;20198;-62
2021/06/27 12:20:05;;;;;;;19.77;13.05;;;28.20;99.90;;;;;;5078720;28;20200;-63
2021/06/27 12:22:48;;;;;;;21.33;12.55;;;27.90;99.90;;;;;;5078428;28;20642;-62
2021/06/27 12:25:17;;;;;;;14.67;11.13;;;27.60;99.90;;;;;;5079434;28;20638;-62
2021/06/27 12:27:49;;;;;;;12.73;10.83;;;27.40;99.90;;;;;;5080361;28;20207;-63
2021/06/27 12:30:19;;;;;;;12.73;11.53;;;27.20;99.90;;;;;;5083153;28;20620;-62
2021/06/27 12:33:02;;;;;;;19.40;13.47;;;26.90;99.90;;;;;;5084220;28;20204;-62
2021/06/27 12:35:35;;;;;;;11.80;10.70;;;26.70;99.90;;;;;;5083872;28;20618;-62
2021/06/27 12:38:05;;;;;;;11.60;9.90;;;26.50;99.90;;;;;;5084333;28;20282;-62
2021/06/27 12:40:34;;;;;;;10.30;9.20;;;26.20;99.90;;;;;;5075354;28;20226;-62
2021/06/27 12:43:04;;;;;;;11.37;10.10;;;26.00;99.90;;;;;;5070594;28;20208;-62
2021/06/27 12:45:34;;;;;;;12.13;10.20;;;25.80;99.90;;;;;;5070073;28;20742;-62
2021/06/27 12:48:12;;;;;;;12.80;11.30;;;25.70;99.90;;;;;;5069829;28;20221;-62